Time;durP1;ratioP1;P1;durP2;ratioP2;P2;SDS_P1;SDS_P2;PMS_P1;PMS_P2;Temp;Humidity;BMP_temperature;BMP_pressure;BME280_temperature;BME280_humidity;BME280_pressure;Samples;Min_cycle;Max_cycle;Signal;HPM_P1;HPM_P2
2023/11/18 00:00:22;;;;;;;42.72;30.67;;;;;;;4.47;100.00;102230.03;5041410;28;20040;-74
2023/11/18 00:02:47;;;;;;;41.88;31.05;;;;;;;4.45;100.00;102231.69;5042699;28;20021;-74
2023/11/18 00:05:13;;;;;;;41.63;30.70;;;;;;;4.43;100.00;102231.63;5044494;28;20123;-76
2023/11/18 00:07:39;;;;;;;41.85;30.90;;;;;;;4.44;100.00;102236.03;5045879;28;20078;-76
2023/11/18 00:10:06;;;;;;;44.35;31.50;;;;;;;4.40;100.00;102234.09;5047797;28;20057;-74
2023/11/18 00:12:34;;;;;;;43.83;31.75;;;;;;;4.36;100.00;102237.34;5044807;28;20077;-74
2023/11/18 00:15:00;;;;;;;43.50;30.85;;;;;;;4.35;100.00;102236.47;5039566;28;20029;-76
2023/11/18 00:17:25;;;;;;;44.83;31.73;;;;;;;4.25;100.00;102238.50;5047724;28;20041;-74
2023/11/18 00:19:51;;;;;;;43.47;31.27;;;;;;;4.20;100.00;102230.44;5044281;28;20083;-72
2023/11/18 00:22:16;;;;;;;43.75;32.30;;;;;;;4.19;100.00;102229.53;5046350;28;20484;-72
2023/11/18 00:24:43;;;;;;;44.63;32.83;;;;;;;4.16;100.00;102233.69;5047027;28;20033;-72
2023/11/18 00:27:08;;;;;;;45.63;32.88;;;;;;;4.11;100.00;102230.84;5045131;28;20121;-72
2023/11/18 00:29:34;;;;;;;45.45;33.15;;;;;;;4.12;100.00;102230.03;5047639;28;20116;-72
2023/11/18 00:32:04;;;;;;;45.72;33.55;;;;;;;4.08;100.00;102225.44;5044544;28;20034;-72
2023/11/18 00:34:29;;;;;;;46.15;34.17;;;;;;;4.10;100.00;102222.91;5040636;28;20030;-72
2023/11/18 00:36:58;;;;;;;45.03;33.05;;;;;;;4.04;100.00;102227.81;5047308;28;20574;-72
2023/11/18 00:39:24;;;;;;;45.45;33.33;;;;;;;4.02;100.00;102230.38;5044708;28;20050;-72
2023/11/18 00:41:49;;;;;;;45.95;33.85;;;;;;;4.02;100.00;102230.38;5046591;28;20026;-71
2023/11/18 00:44:14;;;;;;;46.50;34.60;;;;;;;3.98;100.00;102229.28;5045766;28;20114;-72
2023/11/18 00:46:40;;;;;;;45.78;34.40;;;;;;;3.91;100.00;102226.28;5045233;28;20041;-71
2023/11/18 00:49:05;;;;;;;47.22;34.55;;;;;;;3.90;100.00;102214.88;5046956;28;20040;-72
2023/11/18 00:51:31;;;;;;;47.58;34.38;;;;;;;3.90;100.00;102216.59;5043867;28;20102;-72
2023/11/18 00:53:57;;;;;;;48.03;35.35;;;;;;;3.87;100.00;102221.69;5047288;28;20028;-71
2023/11/18 00:56:23;;;;;;;47.65;35.97;;;;;;;3.89;100.00;102228.81;5044619;28;20029;-74
2023/11/18 00:58:49;;;;;;;46.55;34.25;;;;;;;3.85;100.00;102221.59;5045997;28;20159;-74
2023/11/18 01:01:17;;;;;;;47.30;34.50;;;;;;;3.82;100.00;102222.31;5045859;28;20029;-75
2023/11/18 01:03:46;;;;;;;48.25;34.30;;;;;;;3.76;100.00;102221.13;5045102;28;20057;-78
2023/11/18 01:06:12;;;;;;;47.33;35.60;;;;;;;3.79;100.00;102230.00;5045914;28;20033;-76
2023/11/18 01:08:37;;;;;;;48.50;35.05;;;;;;;3.78;100.00;102235.16;5044564;28;20443;-76
2023/11/18 01:11:07;;;;;;;48.85;35.03;;;;;;;3.78;100.00;102235.16;5047234;28;20050;-77
2023/11/18 01:13:32;;;;;;;48.83;35.90;;;;;;;3.79;100.00;102242.22;5043596;28;20033;-76
2023/11/18 01:15:57;;;;;;;48.70;35.90;;;;;;;3.81;100.00;102237.94;5047273;28;20036;-75
2023/11/18 01:18:23;;;;;;;47.95;36.15;;;;;;;3.82;100.00;102237.13;5044123;28;20033;-74
2023/11/18 01:20:48;;;;;;;48.65;35.72;;;;;;;3.86;100.00;102239.09;5045441;28;20492;-76
2023/11/18 01:23:14;;;;;;;48.60;36.38;;;;;;;3.91;100.00;102239.34;5045386;28;20118;-75
2023/11/18 01:25:40;;;;;;;48.95;36.13;;;;;;;3.95;100.00;102238.69;5044154;28;20030;-76
2023/11/18 01:28:06;;;;;;;48.58;36.40;;;;;;;3.96;100.00;102240.47;5046347;28;20464;-76
2023/11/18 01:30:32;;;;;;;48.25;36.00;;;;;;;3.96;100.00;102243.09;5043572;28;20033;-76
2023/11/18 01:33:00;;;;;;;50.20;35.10;;;;;;;3.92;100.00;102246.41;5046455;28;20472;-75
2023/11/18 01:35:26;;;;;;;48.22;36.03;;;;;;;3.95;100.00;102243.94;5043316;28;20052;-74
2023/11/18 01:37:52;;;;;;;48.60;35.13;;;;;;;3.96;100.00;102244.00;5045783;28;20060;-76
2023/11/18 01:40:19;;;;;;;48.33;35.47;;;;;;;3.96;100.00;102248.31;5042943;28;20419;-75
2023/11/18 01:42:46;;;;;;;49.50;35.80;;;;;;;3.98;100.00;102244.97;5044568;28;20048;-75
2023/11/18 01:45:12;;;;;;;48.53;36.08;;;;;;;3.96;100.00;102240.47;5045392;28;20053;-75
2023/11/18 01:47:39;;;;;;;51.15;36.85;;;;;;;4.00;100.00;102242.44;5043503;28;20029;-75
2023/11/18 01:50:08;;;;;;;48.53;35.83;;;;;;;4.00;100.00;102238.13;5046143;28;20037;-74
2023/11/18 01:52:34;;;;;;;48.70;35.63;;;;;;;3.98;100.00;102238.88;5043121;28;20040;-76
2023/11/18 01:54:59;;;;;;;51.45;36.90;;;;;;;3.97;100.00;102247.53;5046221;28;20037;-76
2023/11/18 01:57:26;;;;;;;49.40;35.65;;;;;;;3.96;100.00;102241.41;5043450;28;20025;-74
2023/11/18 01:59:53;;;;;;;49.75;36.28;;;;;;;3.99;100.00;102254.66;5044082;28;20025;-76
2023/11/18 02:02:20;;;;;;;50.13;36.85;;;;;;;3.99;100.00;102246.78;5043864;28;20060;-77
2023/11/18 02:04:46;;;;;;;50.05;36.63;;;;;;;4.03;100.00;102241.72;5044224;28;20494;-74
2023/11/18 02:07:14;;;;;;;51.42;37.08;;;;;;;3.97;100.00;102237.06;5045199;28;20040;-76
2023/11/18 02:09:41;;;;;;;50.35;36.20;;;;;;;4.00;100.00;102237.22;5043372;28;20109;-74
2023/11/18 02:12:16;;;;;;;52.08;36.20;;;;;;;4.00;100.00;102242.44;5045369;28;20029;-72
2023/11/18 02:14:44;;;;;;;49.55;36.28;;;;;;;4.01;100.00;102244.25;5043628;28;20392;-71
2023/11/18 02:17:10;;;;;;;48.40;36.03;;;;;;;4.03;100.00;102241.72;5043743;28;20090;-72
2023/11/18 02:19:38;;;;;;;50.17;37.05;;;;;;;4.04;100.00;102233.06;5041339;28;20033;-72
2023/11/18 02:22:07;;;;;;;51.72;36.85;;;;;;;4.05;100.00;102242.69;5044120;28;20032;-73
2023/11/18 02:24:36;;;;;;;49.25;35.83;;;;;;;4.03;100.00;102246.94;5042403;28;20397;-73
2023/11/18 02:27:05;;;;;;;48.85;35.67;;;;;;;4.00;100.00;102252.91;5038401;28;20044;-72
2023/11/18 02:29:37;;;;;;;53.17;36.20;;;;;;;3.99;100.00;102249.41;5037304;28;20037;-72
2023/11/18 02:32:30;;;;;;;49.47;36.15;;;;;;;4.01;100.00;102259.97;5038749;28;20025;-72
2023/11/18 02:35:10;;;;;;;51.15;36.00;;;;;;;3.99;100.00;102262.50;5044544;28;20119;-72
2023/11/18 02:37:47;;;;;;;50.63;36.17;;;;;;;4.03;100.00;102260.94;5039259;28;20037;-72
2023/11/18 02:40:22;;;;;;;51.80;35.85;;;;;;;4.06;100.00;102253.22;5042948;28;20049;-72
2023/11/18 02:42:52;;;;;;;49.92;35.78;;;;;;;4.06;100.00;102240.16;5043867;28;20045;-72
2023/11/18 02:45:19;;;;;;;50.33;36.03;;;;;;;4.07;100.00;102236.72;5043210;28;20025;-72
2023/11/18 02:47:45;;;;;;;49.90;35.78;;;;;;;4.07;100.00;102244.56;5043210;28;20040;-73
2023/11/18 02:50:13;;;;;;;52.50;35.45;;;;;;;4.06;100.00;102237.53;5044698;28;20025;-72
2023/11/18 02:52:39;;;;;;;50.05;35.83;;;;;;;4.07;100.00;102227.97;5042166;28;20021;-75
2023/11/18 02:55:08;;;;;;;48.10;35.83;;;;;;;4.05;100.00;102226.97;5044887;28;20035;-74
2023/11/18 02:57:38;;;;;;;50.03;35.50;;;;;;;4.03;100.00;102226.91;5040451;28;20446;-77
2023/11/18 03:00:17;;;;;;;48.95;35.33;;;;;;;4.00;100.00;102219.81;5038455;28;20032;-77
2023/11/18 03:02:43;;;;;;;48.22;35.30;;;;;;;3.97;100.00;102210.88;5040696;28;20018;-75
2023/11/18 03:05:11;;;;;;;50.03;34.97;;;;;;;3.94;100.00;102203.75;5044322;28;20024;-76
2023/11/18 03:07:37;;;;;;;48.10;35.33;;;;;;;3.91;100.00;102201.00;5041924;28;20481;-75
2023/11/18 03:10:09;;;;;;;49.72;35.72;;;;;;;3.91;100.00;102206.22;5044797;28;20424;-75
2023/11/18 03:12:35;;;;;;;49.58;35.58;;;;;;;3.92;100.00;102200.19;5038090;28;20384;-77
2023/11/18 03:15:01;;;;;;;49.00;35.50;;;;;;;3.94;100.00;102195.03;5045127;28;20112;-76
2023/11/18 03:17:27;;;;;;;49.35;35.47;;;;;;;3.96;100.00;102196.91;5041760;28;20025;-77
2023/11/18 03:19:53;;;;;;;49.65;35.67;;;;;;;3.96;100.00;102194.28;5043719;28;20461;-75
2023/11/18 03:22:18;;;;;;;50.53;36.22;;;;;;;3.95;100.00;102197.72;5041513;28;20083;-76
2023/11/18 03:24:44;;;;;;;49.10;34.17;;;;;;;3.91;100.00;102210.56;5042472;28;20033;-76
2023/11/18 03:27:09;;;;;;;48.45;34.00;;;;;;;3.86;100.00;102212.94;5042613;28;20032;-76
2023/11/18 03:29:35;;;;;;;48.30;35.00;;;;;;;3.89;100.00;102201.72;5023303;28;20238;-75
2023/11/18 03:32:01;;;;;;;48.95;34.63;;;;;;;3.89;100.00;102200.03;5044462;28;20033;-74
2023/11/18 03:34:27;;;;;;;49.22;36.40;;;;;;;3.89;100.00;102197.41;5041428;28;20026;-75
2023/11/18 03:36:52;;;;;;;48.58;35.03;;;;;;;3.89;100.00;102197.41;5043424;28;20519;-75
2023/11/18 03:39:18;;;;;;;48.42;35.60;;;;;;;3.91;100.00;102190.53;5041300;28;20080;-74
2023/11/18 03:41:44;;;;;;;48.67;34.20;;;;;;;3.92;100.00;102192.34;5041349;28;20052;-75
2023/11/18 03:44:11;;;;;;;46.42;35.08;;;;;;;3.95;100.00;102186.38;5043511;28;20032;-76
2023/11/18 03:46:37;;;;;;;47.50;34.33;;;;;;;3.94;100.00;102185.44;5041386;28;20029;-74
2023/11/18 03:49:03;;;;;;;46.50;33.80;;;;;;;3.93;100.00;102178.44;5044746;28;20366;-76
2023/11/18 03:51:28;;;;;;;46.13;33.58;;;;;;;3.91;100.00;102171.31;5040831;28;20031;-75
2023/11/18 03:53:54;;;;;;;45.83;33.17;;;;;;;3.83;100.00;102155.22;5043259;28;20037;-75
2023/11/18 03:56:19;;;;;;;46.13;33.53;;;;;;;3.83;100.00;102160.47;5042210;28;20108;-75
2023/11/18 03:58:47;;;;;;;45.97;33.75;;;;;;;3.82;100.00;102158.66;5042064;28;20135;-76
2023/11/18 04:01:22;;;;;;;45.92;33.70;;;;;;;3.82;100.00;102149.06;5043020;28;20033;-76
2023/11/18 04:03:48;;;;;;;47.05;34.03;;;;;;;3.82;100.00;102148.19;5042606;28;20030;-76
2023/11/18 04:06:15;;;;;;;47.13;33.92;;;;;;;3.84;100.00;102142.22;5043020;28;20048;-77
2023/11/18 04:08:45;;;;;;;47.03;34.45;;;;;;;3.88;100.00;102142.38;5041432;28;20461;-77
2023/11/18 04:11:11;;;;;;;46.20;34.40;;;;;;;3.89;100.00;102128.47;5043182;28;20120;-73
2023/11/18 04:13:36;;;;;;;44.67;33.92;;;;;;;3.91;100.00;102132.06;5040992;28;20112;-73
2023/11/18 04:16:03;;;;;;;49.83;34.85;;;;;;;3.93;100.00;102135.66;5042712;28;20040;-72
2023/11/18 04:18:29;;;;;;;48.38;34.40;;;;;;;3.96;100.00;102138.44;5040830;28;20099;-73
2023/11/18 04:20:54;;;;;;;47.50;33.15;;;;;;;4.00;100.00;102140.38;5043218;28;20714;-73
2023/11/18 04:23:19;;;;;;;45.47;33.45;;;;;;;4.01;100.00;102134.34;5041820;28;20037;-73
2023/11/18 04:25:45;;;;;;;43.20;32.10;;;;;;;4.02;100.00;102138.78;5042295;28;20385;-73
2023/11/18 04:28:10;;;;;;;46.28;32.58;;;;;;;4.03;100.00;102131.81;5043031;28;20452;-73
2023/11/18 04:30:35;;;;;;;45.08;32.85;;;;;;;4.05;100.00;102122.31;5040460;28;20041;-73
2023/11/18 04:33:01;;;;;;;43.78;31.40;;;;;;;4.08;100.00;102119.84;5043912;28;20029;-72
2023/11/18 04:35:26;;;;;;;43.65;31.77;;;;;;;4.09;100.00;102119.94;5039570;28;20037;-73
2023/11/18 04:37:52;;;;;;;44.42;31.13;;;;;;;4.08;100.00;102110.28;5042558;28;20108;-72
2023/11/18 04:40:17;;;;;;;43.80;30.88;;;;;;;4.11;100.00;102107.81;5042070;28;20045;-73
2023/11/18 04:42:42;;;;;;;44.83;30.00;;;;;;;4.12;100.00;102107.00;5041316;28;20473;-72
2023/11/18 04:45:09;;;;;;;41.60;29.52;;;;;;;4.13;100.00;102103.56;5043254;28;20074;-73
2023/11/18 04:47:36;;;;;;;42.47;29.42;;;;;;;4.15;100.00;102099.31;5040492;28;20036;-73
2023/11/18 04:50:01;;;;;;;42.60;28.95;;;;;;;4.17;100.00;102108.13;5036612;28;20100;-73
2023/11/18 04:52:27;;;;;;;41.40;28.15;;;;;;;4.19;100.00;102101.28;5046663;28;20154;-75
2023/11/18 04:54:52;;;;;;;40.35;28.38;;;;;;;4.23;100.00;102093.56;5045043;28;20082;-74
2023/11/18 04:57:18;;;;;;;42.72;28.85;;;;;;;4.22;100.00;102092.66;5045474;28;20030;-74
2023/11/18 04:59:43;;;;;;;40.88;27.83;;;;;;;4.23;100.00;102089.22;5046613;28;20021;-75
2023/11/18 05:02:09;;;;;;;40.35;27.42;;;;;;;4.25;100.00;102089.28;5044447;28;20061;-75
2023/11/18 05:04:35;;;;;;;40.35;28.63;;;;;;;4.25;100.00;102081.44;5047189;28;20029;-76
2023/11/18 05:07:01;;;;;;;39.90;27.67;;;;;;;4.25;100.00;102081.44;5039932;28;20116;-75
2023/11/18 05:09:26;;;;;;;41.53;28.13;;;;;;;4.24;100.00;102083.16;5045352;28;20453;-75
2023/11/18 05:11:52;;;;;;;39.25;27.60;;;;;;;4.25;100.00;102081.44;5044687;28;20036;-75
2023/11/18 05:14:17;;;;;;;38.80;25.83;;;;;;;4.24;100.00;102074.41;5045357;28;20392;-75
2023/11/18 05:16:43;;;;;;;39.63;27.65;;;;;;;4.26;100.00;102071.03;5045823;28;20032;-76
2023/11/18 05:19:09;;;;;;;40.35;27.05;;;;;;;4.25;100.00;102066.66;5043858;28;20044;-76
2023/11/18 05:21:34;;;;;;;39.38;26.75;;;;;;;4.24;100.00;102062.22;5045833;28;20167;-75
2023/11/18 05:23:59;;;;;;;39.22;26.88;;;;;;;4.26;100.00;102057.06;5043467;28;20021;-75
2023/11/18 05:26:25;;;;;;;38.70;26.20;;;;;;;4.25;100.00;102050.03;5028251;28;20047;-75
2023/11/18 05:28:50;;;;;;;37.95;25.75;;;;;;;4.26;100.00;102052.72;5044968;28;20113;-77
2023/11/18 05:31:16;;;;;;;37.90;25.88;;;;;;;4.25;100.00;102047.41;5044570;28;20043;-77
2023/11/18 05:33:42;;;;;;;37.33;25.10;;;;;;;4.28;100.00;102050.16;5045730;28;20021;-75
2023/11/18 05:36:08;;;;;;;37.13;25.48;;;;;;;4.26;100.00;102046.59;5043629;28;20038;-77
2023/11/18 05:38:35;;;;;;;35.13;23.77;;;;;;;4.28;100.00;102052.78;5046362;28;20099;-77
2023/11/18 05:41:03;;;;;;;36.95;24.85;;;;;;;4.27;100.00;102048.41;5043401;28;20057;-76
2023/11/18 05:43:36;;;;;;;36.13;24.15;;;;;;;4.29;100.00;102057.22;5046525;28;20055;-78
2023/11/18 05:46:20;;;;;;;33.38;22.73;;;;;;;4.29;100.00;102045.00;5039342;28;20068;-77
2023/11/18 05:48:48;;;;;;;34.88;23.35;;;;;;;4.30;100.00;102032.84;5042207;28;20128;-77
2023/11/18 05:51:13;;;;;;;35.00;22.35;;;;;;;4.31;100.00;102035.53;5045510;28;20040;-75
2023/11/18 05:53:41;;;;;;;33.35;22.52;;;;;;;4.32;100.00;102020.72;5043255;28;20410;-77
2023/11/18 05:56:07;;;;;;;33.95;21.55;;;;;;;4.32;100.00;102011.13;5046008;28;20028;-77
2023/11/18 05:58:32;;;;;;;33.33;21.27;;;;;;;4.35;100.00;102032.25;5042778;28;20034;-77
2023/11/18 06:00:58;;;;;;;32.60;20.35;;;;;;;4.36;100.00;102025.28;5046050;28;20065;-78
2023/11/18 06:03:24;;;;;;;31.73;20.00;;;;;;;4.38;100.00;102021.00;5041451;28;20387;-76
2023/11/18 06:05:51;;;;;;;32.35;19.98;;;;;;;4.38;100.00;102018.38;5044373;28;20029;-77
2023/11/18 06:08:16;;;;;;;31.00;20.27;;;;;;;4.38;100.00;102007.91;5044808;28;20040;-78
2023/11/18 06:10:44;;;;;;;30.73;19.55;;;;;;;4.40;100.00;101993.19;5042002;28;20026;-73
2023/11/18 06:13:12;;;;;;;29.13;18.67;;;;;;;4.41;100.00;101989.72;5045264;28;20029;-73
2023/11/18 06:15:38;;;;;;;30.05;18.60;;;;;;;4.40;100.00;101990.56;5043131;28;20388;-73
2023/11/18 06:18:05;;;;;;;30.23;18.73;;;;;;;4.41;100.00;101994.06;5045989;28;20025;-73
2023/11/18 06:20:30;;;;;;;30.38;18.45;;;;;;;4.42;100.00;102015.09;5041158;28;20033;-73
2023/11/18 06:22:57;;;;;;;31.35;19.17;;;;;;;4.41;100.00;102026.38;5027321;28;20514;-73
2023/11/18 06:25:25;;;;;;;30.48;18.83;;;;;;;4.42;100.00;102022.94;5043663;28;20391;-73
2023/11/18 06:27:52;;;;;;;30.80;18.52;;;;;;;4.42;100.00;102022.94;5044176;28;20112;-73
2023/11/18 06:30:19;;;;;;;28.55;17.85;;;;;;;4.41;100.00;102010.66;5044160;28;20032;-73
2023/11/18 06:32:46;;;;;;;30.65;18.33;;;;;;;4.42;100.00;102001.13;5043087;28;20469;-73
2023/11/18 06:35:14;;;;;;;30.17;18.25;;;;;;;4.43;100.00;102002.91;5044574;28;20059;-73
2023/11/18 06:37:40;;;;;;;30.58;18.00;;;;;;;4.44;100.00;102009.94;5042812;28;20112;-73
2023/11/18 06:40:16;;;;;;;30.38;18.20;;;;;;;4.44;100.00;102004.69;5045257;28;20738;-73
2023/11/18 06:42:46;;;;;;;30.20;17.80;;;;;;;4.42;100.00;102007.25;5039852;28;20033;-73
2023/11/18 06:45:13;;;;;;;30.80;17.50;;;;;;;4.45;100.00;102006.50;5044374;28;20473;-73
2023/11/18 06:47:38;;;;;;;29.25;17.42;;;;;;;4.48;100.00;101990.91;5042173;28;20029;-73
2023/11/18 06:50:04;;;;;;;29.58;17.00;;;;;;;4.48;100.00;101991.81;5045222;28;20024;-72
2023/11/18 06:52:30;;;;;;;30.55;15.80;;;;;;;4.49;100.00;101992.72;5042096;28;20040;-74
2023/11/18 06:54:56;;;;;;;31.48;16.48;;;;;;;4.49;100.00;101996.22;5044440;28;20044;-74
2023/11/18 06:57:21;;;;;;;29.05;16.17;;;;;;;4.50;100.00;101987.56;5043048;28;20025;-75
2023/11/18 06:59:47;;;;;;;27.70;15.45;;;;;;;4.55;100.00;101987.78;5043111;28;20029;-75
2023/11/18 07:02:13;;;;;;;31.73;15.68;;;;;;;4.54;100.00;101986.88;5044208;28;20022;-74
2023/11/18 07:04:38;;;;;;;27.92;15.07;;;;;;;4.56;100.00;101983.41;5040772;28;20385;-77
2023/11/18 07:07:04;;;;;;;29.08;15.02;;;;;;;4.58;100.00;101987.03;5045277;28;20035;-74
2023/11/18 07:09:29;;;;;;;27.33;14.80;;;;;;;4.59;100.00;101983.56;5041806;28;20108;-74
2023/11/18 07:11:55;;;;;;;29.15;14.95;;;;;;;4.58;100.00;101972.19;5043795;28;20396;-74
2023/11/18 07:14:21;;;;;;;27.10;14.90;;;;;;;4.59;100.00;101968.75;5042976;28;20029;-74
2023/11/18 07:16:47;;;;;;;27.38;14.45;;;;;;;4.60;100.00;101975.81;5042648;28;20044;-74
2023/11/18 07:19:19;;;;;;;28.10;14.80;;;;;;;4.62;100.00;101978.50;5043832;28;20033;-75
2023/11/18 07:21:46;;;;;;;28.73;15.13;;;;;;;4.63;100.00;101985.50;5042326;28;20025;-74
2023/11/18 07:24:12;;;;;;;28.38;14.65;;;;;;;4.67;100.00;101987.44;5044038;28;20025;-74
2023/11/18 07:26:37;;;;;;;25.38;13.73;;;;;;;4.67;100.00;101971.72;5041112;28;20117;-74
2023/11/18 07:29:03;;;;;;;26.55;13.35;;;;;;;4.70;100.00;101983.25;5044687;28;20112;-74
2023/11/18 07:31:28;;;;;;;27.90;13.15;;;;;;;4.69;100.00;101989.31;5041549;28;20025;-76
2023/11/18 07:33:54;;;;;;;26.38;13.10;;;;;;;4.73;100.00;101985.09;5043256;28;20120;-76
2023/11/18 07:36:20;;;;;;;26.25;11.95;;;;;;;4.77;100.00;101980.91;5042769;28;20025;-76
2023/11/18 07:38:46;;;;;;;25.50;12.68;;;;;;;4.80;100.00;101991.53;5042013;28;20103;-76
2023/11/18 07:41:23;;;;;;;25.73;12.02;;;;;;;4.81;100.00;101978.50;5043658;28;20486;-76
2023/11/18 07:43:55;;;;;;;25.80;11.50;;;;;;;4.86;100.00;101987.50;5042972;28;20480;-75
2023/11/18 07:46:22;;;;;;;25.58;11.50;;;;;;;4.88;100.00;101990.19;5042761;28;20115;-76
2023/11/18 07:48:55;;;;;;;23.80;11.35;;;;;;;4.89;100.00;101982.38;5042382;28;20037;-78
2023/11/18 07:51:21;;;;;;;24.65;11.20;;;;;;;4.89;100.00;101990.25;5025236;28;20033;-78
2023/11/18 07:53:48;;;;;;;24.25;10.52;;;;;;;4.94;100.00;102000.06;5042250;28;20040;-78
2023/11/18 07:56:14;;;;;;;24.15;10.63;;;;;;;4.94;100.00;101995.69;5043373;28;20120;-77
2023/11/18 07:58:45;;;;;;;22.88;10.45;;;;;;;4.94;100.00;101987.81;5041052;28;20022;-77
2023/11/18 08:01:11;;;;;;;24.00;11.07;;;;;;;4.95;100.00;101989.63;5044122;28;20029;-78
2023/11/18 08:03:37;;;;;;;24.35;10.48;;;;;;;4.95;100.00;101980.84;5040696;28;20048;-78
2023/11/18 08:06:03;;;;;;;22.25;10.10;;;;;;;5.00;100.00;101987.22;5044261;28;20036;-78
2023/11/18 08:08:28;;;;;;;23.83;9.98;;;;;;;5.04;100.00;101991.78;5041380;28;20017;-78
2023/11/18 08:10:55;;;;;;;24.40;10.02;;;;;;;5.09;100.00;102007.69;5041566;28;20116;-74
2023/11/18 08:13:21;;;;;;;21.73;9.35;;;;;;;5.12;100.00;102006.09;5040994;28;20044;-73
2023/11/18 08:15:46;;;;;;;24.02;9.60;;;;;;;5.15;100.00;101985.25;5042019;28;20503;-74
2023/11/18 08:18:12;;;;;;;23.45;9.63;;;;;;;5.17;100.00;101974.84;5043333;28;20025;-73
2023/11/18 08:20:38;;;;;;;24.67;9.52;;;;;;;5.19;100.00;101968.84;5040451;28;20033;-73
2023/11/18 08:23:07;;;;;;;23.27;9.57;;;;;;;5.22;100.00;101976.84;5044058;28;20021;-74
2023/11/18 08:25:33;;;;;;;22.90;9.15;;;;;;;5.23;100.00;101976.03;5041063;28;20045;-74
2023/11/18 08:28:00;;;;;;;22.33;9.20;;;;;;;5.27;100.00;101970.91;5047668;28;20395;-73
2023/11/18 08:30:26;;;;;;;23.13;8.70;;;;;;;5.29;100.00;101971.91;5045487;28;20033;-73
2023/11/18 08:32:52;;;;;;;23.40;8.88;;;;;;;5.32;100.00;101975.53;5046178;28;20018;-73
2023/11/18 08:35:18;;;;;;;24.95;9.05;;;;;;;5.35;100.00;101959.03;5046273;28;20112;-73
2023/11/18 08:37:45;;;;;;;23.85;8.95;;;;;;;5.38;100.00;101965.31;5045252;28;20030;-74
2023/11/18 08:40:21;;;;;;;22.85;8.60;;;;;;;5.39;100.00;101960.97;5047143;28;20091;-73
2023/11/18 08:42:51;;;;;;;21.75;8.57;;;;;;;5.37;100.00;101960.91;5045426;28;20033;-74
2023/11/18 08:45:18;;;;;;;22.20;8.57;;;;;;;5.34;100.00;101963.38;5046312;28;20029;-73
2023/11/18 08:47:45;;;;;;;22.88;8.93;;;;;;;5.26;100.00;101949.06;5045124;28;20029;-73
2023/11/18 08:50:12;;;;;;;22.33;9.18;;;;;;;5.20;100.00;101954.03;5047075;28;20025;-76
2023/11/18 08:52:43;;;;;;;24.65;9.70;;;;;;;5.16;100.00;101955.59;5042672;28;20116;-75
2023/11/18 08:55:17;;;;;;;23.17;9.88;;;;;;;5.11;100.00;101943.13;5047536;28;20033;-75
2023/11/18 08:57:59;;;;;;;23.50;9.93;;;;;;;5.10;100.00;101941.31;5044608;28;20038;-75
2023/11/18 09:00:48;;;;;;;23.75;9.93;;;;;;;5.08;100.00;101933.38;5045289;28;20032;-76
2023/11/18 09:03:43;;;;;;;23.35;9.73;;;;;;;5.06;100.00;101932.44;5041888;28;20034;-76
2023/11/18 09:06:18;;;;;;;24.77;10.13;;;;;;;5.03;100.00;101938.44;5039364;28;20053;-75
2023/11/18 09:08:52;;;;;;;26.27;11.07;;;;;;;5.05;100.00;101928.03;5045043;28;20025;-75
2023/11/18 09:11:19;;;;;;;24.58;11.00;;;;;;;5.05;100.00;101933.25;5045041;28;20025;-74
2023/11/18 09:13:49;;;;;;;26.08;11.30;;;;;;;5.04;100.00;101923.63;5046065;28;20040;-75
2023/11/18 09:16:15;;;;;;;24.98;11.00;;;;;;;5.04;100.00;101921.88;5044881;28;20025;-77
2023/11/18 09:18:44;;;;;;;23.98;10.60;;;;;;;5.08;100.00;101915.03;5046516;28;20059;-75
2023/11/18 09:21:14;;;;;;;26.67;11.10;;;;;;;5.06;100.00;101901.00;5043618;28;20029;-74
2023/11/18 09:23:41;;;;;;;25.15;11.63;;;;;;;5.08;100.00;101901.94;5046863;28;20090;-74
2023/11/18 09:26:08;;;;;;;24.60;10.75;;;;;;;5.08;100.00;101904.56;5043301;28;20035;-73
2023/11/18 09:28:37;;;;;;;24.40;11.77;;;;;;;5.08;100.00;101901.94;5046905;28;20374;-74
2023/11/18 09:31:11;;;;;;;25.35;11.40;;;;;;;5.12;100.00;101896.00;5043510;28;20033;-76
2023/11/18 09:33:39;;;;;;;24.80;11.50;;;;;;;5.13;100.00;101878.56;5039634;28;20387;-75
2023/11/18 09:36:12;;;;;;;26.63;11.85;;;;;;;5.15;100.00;101872.53;5039529;28;20065;-75
2023/11/18 09:38:41;;;;;;;25.58;11.70;;;;;;;5.19;100.00;101877.09;5038295;28;20378;-76
2023/11/18 09:41:10;;;;;;;24.55;11.65;;;;;;;5.19;100.00;101866.59;5039801;28;20017;-76
2023/11/18 09:43:46;;;;;;;28.63;12.00;;;;;;;5.24;100.00;101874.66;5039490;28;20030;-76
2023/11/18 09:46:26;;;;;;;27.50;11.80;;;;;;;5.28;100.00;101860.84;5039151;28;20056;-76
2023/11/18 09:49:14;;;;;;;26.30;11.38;;;;;;;5.36;100.00;101869.06;5044648;28;20078;-75
2023/11/18 09:51:41;;;;;;;26.08;11.55;;;;;;;5.40;100.00;101864.00;5039771;28;20167;-76
2023/11/18 09:54:37;;;;;;;27.10;11.95;;;;;;;5.47;100.00;101849.41;5046193;28;20040;-76
2023/11/18 09:57:13;;;;;;;25.55;12.05;;;;;;;5.52;100.00;101863.63;5046304;28;20036;-76
2023/11/18 09:59:54;;;;;;;26.80;12.23;;;;;;;5.56;100.00;101860.28;5038001;28;20039;-75
2023/11/18 10:02:23;;;;;;;29.10;12.85;;;;;;;5.58;100.00;101860.34;5042976;28;20021;-74
2023/11/18 10:04:56;;;;;;;25.52;11.93;;;;;;;5.61;100.00;101851.69;5044698;28;20056;-75
2023/11/18 10:07:26;;;;;;;26.25;12.55;;;;;;;5.62;100.00;101848.25;5044181;28;20044;-76
2023/11/18 10:09:57;;;;;;;26.50;12.35;;;;;;;5.63;100.00;101840.44;5044397;28;20054;-76
2023/11/18 10:12:23;;;;;;;27.95;11.68;;;;;;;5.63;100.00;101827.31;5044543;28;20368;-76
2023/11/18 10:14:52;;;;;;;27.48;12.63;;;;;;;5.65;100.00;101830.91;5044818;28;20391;-76
2023/11/18 10:17:17;;;;;;;26.50;11.85;;;;;;;5.67;100.00;101823.09;5043448;28;20108;-73
2023/11/18 10:19:57;;;;;;;27.90;11.23;;;;;;;5.70;100.00;101834.59;5045537;28;20115;-73
2023/11/18 10:22:24;;;;;;;27.30;11.65;;;;;;;5.71;100.00;101833.78;5044364;28;20025;-72
2023/11/18 10:24:49;;;;;;;27.33;11.52;;;;;;;5.75;100.00;101821.66;5044366;28;20029;-72
2023/11/18 10:27:15;;;;;;;25.38;11.13;;;;;;;5.79;100.00;101820.06;5043035;28;20029;-72
2023/11/18 10:29:41;;;;;;;29.45;11.80;;;;;;;5.84;100.00;101822.03;5045642;28;20534;-72
2023/11/18 10:32:15;;;;;;;26.65;11.52;;;;;;;5.90;100.00;101803.91;5042435;28;20029;-73
2023/11/18 10:34:42;;;;;;;26.83;11.43;;;;;;;5.94;100.00;101799.66;5039400;28;20576;-73
2023/11/18 10:37:10;;;;;;;27.35;11.68;;;;;;;6.01;100.00;101806.97;5045495;28;20112;-72
2023/11/18 10:39:36;;;;;;;27.88;10.55;;;;;;;6.04;100.00;101808.81;5038248;28;20084;-72
2023/11/18 10:42:02;;;;;;;24.90;10.55;;;;;;;6.07;100.00;101801.97;5044987;28;20417;-72
2023/11/18 10:44:29;;;;;;;26.42;10.75;;;;;;;6.10;100.00;101795.91;5042651;28;20071;-72
2023/11/18 10:46:58;;;;;;;26.13;10.63;;;;;;;6.14;100.00;101797.81;5042872;28;20037;-74
2023/11/18 10:49:26;;;;;;;25.88;10.45;;;;;;;6.19;100.00;101791.03;5042874;28;20029;-74
2023/11/18 10:51:52;;;;;;;26.75;9.95;;;;;;;6.23;100.00;101785.06;5042324;28;20030;-74
2023/11/18 10:54:19;;;;;;;25.70;9.95;;;;;;;6.26;100.00;101776.38;5044381;28;20494;-74
2023/11/18 10:56:56;;;;;;;23.65;9.73;;;;;;;6.30;100.00;101787.91;5041215;28;20128;-75
2023/11/18 10:59:22;;;;;;;26.65;10.27;;;;;;;6.31;100.00;101784.44;5043522;28;20032;-74
2023/11/18 11:01:48;;;;;;;22.67;8.82;;;;;;;6.32;100.00;101791.47;5042957;28;20026;-75
2023/11/18 11:04:21;;;;;;;25.30;9.60;;;;;;;6.28;100.00;101786.09;5044638;28;20033;-74
2023/11/18 11:06:56;;;;;;;23.80;9.23;;;;;;;6.27;100.00;101784.31;5042501;28;20427;-74
2023/11/18 11:09:27;;;;;;;23.92;9.48;;;;;;;6.28;100.00;101775.59;5043270;28;20048;-74
2023/11/18 11:11:56;;;;;;;25.45;9.55;;;;;;;6.27;100.00;101765.94;5043270;28;20030;-77